createdAt,value
2023-11-01T05:01:37.808Z,98387.67
2023-11-01T05:04:04.709Z,98387.82
2023-11-01T05:06:35.654Z,98395.11
2023-11-01T05:09:02.257Z,98394.73
2023-11-01T05:11:31.188Z,98399.49
2023-11-01T05:13:57.766Z,98401.60
2023-11-01T05:16:26.503Z,98403.50
2023-11-01T05:19:11.548Z,98406.92
2023-11-01T05:21:43.482Z,98409.88
2023-11-01T05:24:12.120Z,98414.80
2023-11-01T05:26:40.682Z,98417.23
2023-11-01T05:29:17.744Z,98425.58
2023-11-01T05:32:04.111Z,98431.06
2023-11-01T05:34:32.262Z,98435.31
2023-11-01T05:37:00.196Z,98439.88
2023-11-01T05:39:28.877Z,98442.20
2023-11-01T05:41:59.137Z,98451.95
2023-11-01T05:44:27.293Z,98453.08
2023-11-01T05:47:35.379Z,98457.88
2023-11-01T05:50:53.121Z,98464.14
2023-11-01T05:53:21.228Z,98465.95
2023-11-01T05:56:01.276Z,98472.34
2023-11-01T05:58:36.319Z,98478.97
2023-11-01T06:01:27.704Z,98482.00
2023-11-01T06:04:02.053Z,98488.38
2023-11-01T06:06:30.393Z,98491.32
2023-11-01T06:09:01.482Z,98497.04
2023-11-01T06:11:33.806Z,98501.16
2023-11-01T06:14:01.814Z,98506.03
2023-11-01T06:16:30.651Z,98512.20
2023-11-01T06:18:58.726Z,98512.67
2023-11-01T06:21:30.302Z,98513.92
2023-11-01T06:23:59.292Z,98516.55
2023-11-01T06:26:27.543Z,98520.87
2023-11-01T06:28:55.655Z,98522.06
2023-11-01T06:31:24.987Z,98525.60
2023-11-01T06:33:53.200Z,98529.36
2023-11-01T06:36:21.573Z,98533.75
2023-11-01T06:38:49.512Z,98534.18
2023-11-01T06:41:41.451Z,98538.45
2023-11-01T06:44:14.603Z,98544.11
2023-11-01T06:46:43.477Z,98545.86
2023-11-01T06:49:17.393Z,98547.51
2023-11-01T06:51:46.042Z,98548.77
2023-11-01T06:54:32.141Z,98548.08
2023-11-01T06:57:00.176Z,98558.11
2023-11-01T06:59:28.202Z,98557.89
2023-11-01T07:01:58.307Z,98560.29
2023-11-01T07:04:46.650Z,98560.36
2023-11-01T07:07:26.215Z,98567.23
2023-11-01T07:09:54.406Z,98572.38
2023-11-01T07:12:23.245Z,98574.71
2023-11-01T07:14:51.253Z,98578.79
2023-11-01T07:17:30.890Z,98583.46
2023-11-01T07:19:58.979Z,98583.17
2023-11-01T07:22:29.261Z,98587.66
2023-11-01T07:25:00.227Z,98587.05
2023-11-01T07:27:28.290Z,98592.17
2023-11-01T07:30:06.106Z,98591.54
2023-11-01T07:32:34.080Z,98590.67
2023-11-01T07:35:03.761Z,98588.30
2023-11-01T07:37:33.386Z,98589.02
2023-11-01T07:40:01.484Z,98584.94
2023-11-01T07:42:36.665Z,98591.20
2023-11-01T07:45:05.371Z,98595.64
2023-11-01T07:47:33.544Z,98597.84
2023-11-01T07:50:01.670Z,98603.79
2023-11-01T07:52:30.058Z,98606.20
2023-11-01T07:55:03.757Z,98608.32
2023-11-01T07:57:50.192Z,98606.89
2023-11-01T08:00:21.440Z,98609.22
2023-11-01T08:02:51.726Z,98615.00
2023-11-01T08:05:22.248Z,98612.67
2023-11-01T08:07:51.184Z,98611.67
2023-11-01T08:13:00.110Z,98613.65
2023-11-01T08:15:29.557Z,98616.27
2023-11-01T08:17:57.916Z,98617.38
2023-11-01T08:20:34.349Z,98619.42
2023-11-01T08:23:02.453Z,98620.81
2023-11-01T08:25:32.952Z,98622.91
2023-11-01T08:28:01.003Z,98620.63
2023-11-01T08:30:29.139Z,98622.02
2023-11-01T08:32:57.977Z,98619.95
2023-11-01T08:35:31.474Z,98620.98
2023-11-01T08:38:01.681Z,98621.48
2023-11-01T08:40:32.317Z,98625.77
2023-11-01T08:43:00.578Z,98630.18
2023-11-01T08:45:28.736Z,98631.17
2023-11-01T08:47:56.952Z,98634.64
2023-11-01T08:50:39.372Z,98633.67
2023-11-01T08:53:07.383Z,98634.94
2023-11-01T08:56:22.566Z,98633.95
2023-11-01T08:58:53.052Z,98637.80
2023-11-01T09:01:21.192Z,98637.69
2023-11-01T09:03:51.734Z,98634.66
2023-11-01T09:06:21.111Z,98640.90
2023-11-01T09:08:49.455Z,98634.91
2023-11-01T09:11:17.592Z,98638.96
2023-11-01T09:13:45.533Z,98640.30
2023-11-01T09:16:13.518Z,98640.75
2023-11-01T09:18:43.251Z,98642.98
2023-11-01T09:21:11.234Z,98639.06
2023-11-01T09:23:39.230Z,98639.73
2023-11-01T09:26:10.733Z,98643.28
2023-11-01T09:28:40.713Z,98639.52
2023-11-01T09:31:08.907Z,98635.84
2023-11-01T09:33:37.000Z,98632.06
2023-11-01T09:36:11.869Z,98632.71
2023-11-01T09:38:39.956Z,98630.88
2023-11-01T09:41:36.966Z,98633.23
2023-11-01T09:44:30.076Z,98634.44
2023-11-01T09:47:00.424Z,98631.58
2023-11-01T09:49:31.004Z,98627.23
2023-11-01T09:52:00.796Z,98634.87
2023-11-01T09:55:06.047Z,98628.89
2023-11-01T09:57:44.369Z,98631.45
2023-11-01T10:00:18.777Z,98632.08
2023-11-01T10:03:19.103Z,98625.86
2023-11-01T10:05:50.462Z,98625.98
2023-11-01T10:08:25.556Z,98625.19
2023-11-01T10:10:57.088Z,98620.59
2023-11-01T10:13:33.238Z,98618.31
2023-11-01T10:16:04.020Z,98615.61
2023-11-01T10:19:05.759Z,98610.40
2023-11-01T10:21:59.688Z,98608.55
2023-11-01T10:24:32.959Z,98608.02
2023-11-01T10:27:30.851Z,98610.30
2023-11-01T11:03:53.366Z,98607.33
2023-11-01T11:06:29.631Z,98605.58
2023-11-01T11:09:33.350Z,98611.70
2023-11-01T11:12:35.385Z,98612.08
2023-11-01T11:15:11.903Z,98605.98
2023-11-01T11:18:08.916Z,98609.78
2023-11-01T11:20:41.209Z,98604.45
2023-11-01T11:23:18.840Z,98605.73
2023-11-01T11:25:51.638Z,98603.45
2023-11-01T11:28:24.748Z,98609.33
2023-11-01T11:31:04.159Z,98606.99
2023-11-01T11:34:12.468Z,98607.34
2023-11-01T11:37:17.624Z,98608.01
2023-11-01T11:40:01.115Z,98604.70
2023-11-01T11:42:43.055Z,98611.72
2023-11-01T11:45:28.998Z,98616.20
2023-11-01T11:48:40.084Z,98614.15
2023-11-01T11:51:09.479Z,98615.59
2023-11-01T11:53:58.437Z,98614.11
2023-11-01T11:57:20.735Z,98615.80
2023-11-01T12:07:09.017Z,98616.22
2023-11-01T12:11:23.798Z,98613.83
2023-11-01T12:13:15.201Z,98607.81
2023-11-01T12:15:56.116Z,98612.04
2023-11-01T12:18:28.823Z,98616.27
2023-11-01T12:20:56.810Z,98614.20
2023-11-01T12:23:35.316Z,98615.88
2023-11-01T12:26:12.836Z,98615.16
2023-11-01T12:28:49.936Z,98613.59
2023-11-01T12:31:17.852Z,98612.34
2023-11-01T12:33:45.974Z,98610.11
2023-11-01T12:36:29.889Z,98607.19
2023-11-01T12:39:18.293Z,98606.58
2023-11-01T12:41:48.473Z,98607.41
2023-11-01T12:44:17.948Z,98607.25
2023-11-01T12:46:45.972Z,98602.41
2023-11-01T12:49:14.013Z,98607.77
2023-11-01T12:51:41.846Z,98605.17
2023-11-01T12:54:09.750Z,98602.65
2023-11-01T12:56:40.785Z,98603.67
2023-11-01T12:59:11.443Z,98602.00
2023-11-01T13:01:39.457Z,98605.70
2023-11-01T13:04:11.307Z,98608.58
2023-11-01T13:06:39.694Z,98605.98
2023-11-01T13:09:15.749Z,98603.05
2023-11-01T13:11:44.230Z,98600.25
2023-11-01T13:14:12.303Z,98601.14
